Time;durP1;ratioP1;P1;durP2;ratioP2;P2;SDS_P1;SDS_P2;PMS_P1;PMS_P2;Temp;Humidity;BMP_temperature;BMP_pressure;BME280_temperature;BME280_humidity;BME280_pressure;Samples;Min_cycle;Max_cycle;Signal;HPM_P1;HPM_P2
2021/08/22 00:01:04;;;;;;;2.23;2.03;;;22.60;99.90;;;;;;5034350;28;20201;-91
2021/08/22 00:03:40;;;;;;;2.93;1.90;;;22.70;99.90;;;;;;5050546;28;20236;-91
2021/08/22 00:06:24;;;;;;;3.03;2.37;;;22.80;99.90;;;;;;5035297;28;20285;-92
2021/08/22 00:08:55;;;;;;;2.60;2.20;;;23.00;99.90;;;;;;5029190;28;20229;-92
2021/08/22 00:11:29;;;;;;;3.83;1.90;;;22.70;99.90;;;;;;5038586;28;20255;-92
2021/08/22 00:14:01;;;;;;;2.40;2.20;;;22.20;99.90;;;;;;5038997;28;20616;-92
2021/08/22 00:16:32;;;;;;;2.87;2.17;;;21.80;99.90;;;;;;5044066;28;20224;-92
2021/08/22 00:19:04;;;;;;;2.53;1.90;;;21.80;99.90;;;;;;5053305;28;20215;-92
2021/08/22 00:21:38;;;;;;;1.70;1.60;;;22.00;99.90;;;;;;5050199;28;20213;-92
2021/08/22 00:24:10;;;;;;;3.73;2.20;;;22.00;99.90;;;;;;5032839;28;20216;-92
2021/08/22 00:26:43;;;;;;;2.57;1.97;;;21.80;99.90;;;;;;5050827;28;20202;-93
2021/08/22 00:29:16;;;;;;;3.30;1.70;;;21.70;99.90;;;;;;5055740;28;20267;-92
2021/08/22 00:31:48;;;;;;;2.90;2.00;;;21.70;99.90;;;;;;5032586;28;20677;-90
2021/08/22 00:34:20;;;;;;;2.77;2.10;;;21.50;99.90;;;;;;5049434;28;20228;-92
2021/08/22 00:36:54;;;;;;;2.13;1.93;;;21.40;99.90;;;;;;5050785;28;20292;-91
2021/08/22 00:39:30;;;;;;;2.20;1.60;;;21.10;99.90;;;;;;5050709;28;20208;-92
2021/08/22 00:42:06;;;;;;;2.57;2.00;;;20.80;99.90;;;;;;5046323;28;20228;-92
2021/08/22 00:44:39;;;;;;;2.37;2.03;;;20.60;99.90;;;;;;5050442;28;20201;-91
2021/08/22 00:47:12;;;;;;;3.37;2.10;;;20.60;99.90;;;;;;5047935;28;20232;-90
2021/08/22 00:49:47;;;;;;;2.17;1.97;;;20.40;99.90;;;;;;5037548;28;20251;-91
2021/08/22 00:52:18;;;;;;;3.17;1.90;;;20.40;99.90;;;;;;5054791;28;20202;-91
2021/08/22 00:54:51;;;;;;;2.30;1.90;;;20.40;99.90;;;;;;5050121;28;20213;-91
2021/08/22 00:57:25;;;;;;;1.93;1.80;;;20.40;99.90;;;;;;5052263;28;20204;-90
2021/08/22 00:59:58;;;;;;;2.27;1.90;;;20.50;99.90;;;;;;5049234;28;20215;-91
2021/08/22 01:02:33;;;;;;;2.23;2.03;;;20.30;99.90;;;;;;5034963;28;20185;-90
2021/08/22 01:05:13;;;;;;;2.10;1.80;;;20.40;99.90;;;;;;5038366;28;20232;-91
2021/08/22 01:07:49;;;;;;;2.20;2.00;;;20.30;99.90;;;;;;5037653;28;20255;-90
2021/08/22 01:10:26;;;;;;;3.60;2.00;;;20.10;99.90;;;;;;5037503;28;20263;-91
2021/08/22 01:13:04;;;;;;;2.37;2.00;;;20.10;99.90;;;;;;5037582;28;20280;-91
2021/08/22 01:15:38;;;;;;;3.17;2.53;;;20.10;99.90;;;;;;5042954;28;20213;-91
2021/08/22 01:18:13;;;;;;;2.80;2.60;;;20.10;99.90;;;;;;5027625;28;20197;-91
2021/08/22 01:20:51;;;;;;;3.90;3.10;;;20.10;99.90;;;;;;5027997;28;20185;-91
2021/08/22 01:23:23;;;;;;;3.50;2.30;;;20.00;99.90;;;;;;5036708;28;20189;-91
2021/08/22 01:25:56;;;;;;;3.03;2.30;;;20.10;99.90;;;;;;5036716;28;20193;-91
2021/08/22 01:28:30;;;;;;;2.93;2.43;;;20.10;99.90;;;;;;5036725;28;20205;-90
2021/08/22 01:31:08;;;;;;;1.73;1.63;;;20.10;99.90;;;;;;5052070;28;20220;-92
2021/08/22 01:33:43;;;;;;;3.97;2.20;;;20.00;99.90;;;;;;5057256;28;20204;-92
2021/08/22 01:36:15;;;;;;;2.90;2.50;;;19.90;99.90;;;;;;5057083;28;20214;-91
2021/08/22 01:38:47;;;;;;;3.17;2.37;;;20.00;99.90;;;;;;5057088;28;20256;-90
2021/08/22 01:41:20;;;;;;;2.93;2.30;;;20.00;99.90;;;;;;5079949;22;20760;-90
2021/08/22 01:43:54;;;;;;;2.37;2.17;;;20.00;99.90;;;;;;5045605;28;20248;-89
2021/08/22 01:46:29;;;;;;;3.10;2.00;;;20.00;99.90;;;;;;5040301;28;20717;-91
2021/08/22 01:49:07;;;;;;;2.60;2.40;;;19.90;99.90;;;;;;5041860;28;20201;-90
2021/08/22 01:51:39;;;;;;;2.30;2.10;;;20.00;99.90;;;;;;5040204;28;20263;-90
2021/08/22 01:54:12;;;;;;;3.60;2.20;;;20.10;99.90;;;;;;5035624;28;20205;-90
2021/08/22 01:56:44;;;;;;;2.03;1.93;;;20.00;99.90;;;;;;5039111;28;20236;-90
2021/08/22 01:59:16;;;;;;;2.53;2.33;;;19.90;99.90;;;;;;5039704;28;20232;-91
2021/08/22 02:01:47;;;;;;;2.33;2.07;;;19.70;99.90;;;;;;5046026;28;20237;-90
2021/08/22 02:04:27;;;;;;;3.00;2.70;;;19.70;99.90;;;;;;5052465;28;20204;-90
2021/08/22 02:07:03;;;;;;;3.10;2.80;;;19.70;99.90;;;;;;5040486;28;20216;-91
2021/08/22 02:09:47;;;;;;;2.90;2.70;;;19.70;99.90;;;;;;5027393;28;20223;-91
2021/08/22 02:12:22;;;;;;;6.03;5.53;;;19.70;99.90;;;;;;5035357;28;20216;-91
2021/08/22 02:14:59;;;;;;;4.93;3.33;;;19.80;99.90;;;;;;5049760;28;20200;-91
2021/08/22 02:17:46;;;;;;;3.73;3.43;;;19.70;99.90;;;;;;5033688;28;20216;-92
2021/08/22 02:20:27;;;;;;;6.10;4.00;;;19.60;99.90;;;;;;5049299;28;20236;-91
2021/08/22 02:22:59;;;;;;;6.50;3.97;;;19.50;99.90;;;;;;5048378;28;20269;-92
2021/08/22 02:25:31;;;;;;;6.33;4.07;;;19.50;99.90;;;;;;5030674;28;20274;-91
2021/08/22 02:28:03;;;;;;;6.13;3.70;;;19.50;99.90;;;;;;5034207;28;20202;-90
2021/08/22 02:30:38;;;;;;;5.10;3.50;;;19.50;99.90;;;;;;5037400;28;20228;-91
2021/08/22 02:33:10;;;;;;;4.30;3.90;;;19.40;99.90;;;;;;5038638;28;20210;-91
2021/08/22 02:35:47;;;;;;;5.93;3.73;;;19.30;99.90;;;;;;5046011;28;20202;-92
2021/08/22 02:38:19;;;;;;;4.37;3.70;;;19.30;99.90;;;;;;5050918;28;20205;-92
2021/08/22 02:40:51;;;;;;;5.70;3.43;;;19.20;99.90;;;;;;5033460;28;20216;-92
2021/08/22 02:43:22;;;;;;;5.47;4.03;;;19.20;99.90;;;;;;5031923;28;20214;-90
2021/08/22 02:46:08;;;;;;;3.93;3.53;;;19.20;99.90;;;;;;5305504;23;20241;-92
2021/08/22 02:48:40;;;;;;;5.43;3.83;;;19.10;99.90;;;;;;5082437;22;21357;-91
2021/08/22 02:51:15;;;;;;;5.20;3.97;;;19.10;99.90;;;;;;5052357;28;20252;-90
2021/08/22 02:53:52;;;;;;;5.80;4.07;;;19.10;99.90;;;;;;5050897;28;20251;-90
2021/08/22 02:56:25;;;;;;;4.83;3.60;;;19.10;99.90;;;;;;5027179;28;20225;-91
2021/08/22 02:58:57;;;;;;;7.13;4.07;;;19.10;99.90;;;;;;5052709;28;20677;-91
2021/08/22 03:01:31;;;;;;;4.57;3.70;;;19.10;99.90;;;;;;5042428;28;20617;-92
2021/08/22 03:04:05;;;;;;;4.00;3.63;;;19.00;99.90;;;;;;5048465;28;20673;-92
2021/08/22 03:06:38;;;;;;;5.07;3.50;;;19.00;99.90;;;;;;5056250;28;20201;-91
2021/08/22 03:09:22;;;;;;;4.07;3.70;;;19.00;99.90;;;;;;5046675;28;20224;-91
2021/08/22 03:11:55;;;;;;;4.10;3.70;;;18.90;99.90;;;;;;5051135;28;20244;-92
2021/08/22 03:17:14;;;;;;;5.30;3.90;;;19.00;99.90;;;;;;5048620;28;20201;-92
2021/08/22 03:19:56;;;;;;;4.57;3.37;;;19.00;99.90;;;;;;5047765;28;20232;-92
2021/08/22 03:22:33;;;;;;;4.03;3.63;;;18.90;99.90;;;;;;5053651;28;20232;-92
2021/08/22 03:25:17;;;;;;;4.40;4.00;;;18.80;99.90;;;;;;5172262;22;20302;-91
2021/08/22 03:27:49;;;;;;;4.13;3.73;;;18.80;99.90;;;;;;5044354;28;20228;-90
2021/08/22 03:30:20;;;;;;;4.07;3.70;;;18.60;99.90;;;;;;5039400;28;20205;-90
2021/08/22 03:32:51;;;;;;;4.40;3.97;;;18.60;99.90;;;;;;5039688;28;20212;-91
2021/08/22 03:35:23;;;;;;;4.20;3.80;;;18.70;99.90;;;;;;5045232;28;20292;-91
2021/08/22 03:38:23;;;;;;;5.13;3.50;;;18.70;99.90;;;;;;5044103;28;20251;-91
2021/08/22 03:41:00;;;;;;;4.10;3.70;;;18.70;99.90;;;;;;5046552;28;20525;-91
2021/08/22 03:43:31;;;;;;;3.80;3.50;;;18.70;99.90;;;;;;5046484;28;20242;-88
2021/08/22 03:46:02;;;;;;;4.10;3.70;;;18.70;99.90;;;;;;5048187;28;20206;-90
2021/08/22 03:48:34;;;;;;;6.13;4.00;;;18.60;99.90;;;;;;5052418;28;20212;-91
2021/08/22 03:51:05;;;;;;;4.43;3.50;;;18.60;99.90;;;;;;5050248;28;20235;-91
2021/08/22 03:53:36;;;;;;;8.33;3.37;;;18.70;99.90;;;;;;5051406;28;20209;-91
2021/08/22 03:56:10;;;;;;;10.10;3.63;;;18.70;99.90;;;;;;5055186;28;20228;-91
2021/08/22 03:58:42;;;;;;;4.47;3.03;;;18.60;99.90;;;;;;5040959;28;20205;-90
2021/08/22 04:01:14;;;;;;;3.50;3.20;;;18.60;99.90;;;;;;5057909;28;20197;-90
2021/08/22 04:03:46;;;;;;;2.90;2.70;;;18.60;99.90;;;;;;5056267;28;20197;-91
2021/08/22 04:06:17;;;;;;;3.47;3.17;;;18.60;99.90;;;;;;5053428;28;20216;-91
2021/08/22 04:08:49;;;;;;;3.30;3.00;;;18.50;99.90;;;;;;5051402;28;20205;-90
2021/08/22 04:11:24;;;;;;;3.10;2.80;;;18.40;99.90;;;;;;5052676;28;20248;-91
2021/08/22 04:13:56;;;;;;;3.20;2.97;;;18.40;99.90;;;;;;5056294;28;20192;-90
2021/08/22 04:16:27;;;;;;;3.43;3.13;;;18.40;99.90;;;;;;5054192;28;20202;-92
2021/08/22 04:18:58;;;;;;;3.40;3.10;;;18.40;99.90;;;;;;5054041;28;20193;-91
2021/08/22 04:21:30;;;;;;;5.00;3.03;;;18.30;99.90;;;;;;5057709;28;20189;-91
2021/08/22 04:24:02;;;;;;;4.07;3.13;;;18.20;99.90;;;;;;5051848;28;20220;-90
2021/08/22 04:26:41;;;;;;;4.50;3.10;;;18.30;99.90;;;;;;5038620;28;20205;-91
2021/08/22 04:29:13;;;;;;;2.77;2.57;;;18.20;99.90;;;;;;5021577;28;20189;-91
2021/08/22 04:31:47;;;;;;;3.83;3.20;;;18.20;99.90;;;;;;5037453;28;20214;-91
2021/08/22 04:34:20;;;;;;;2.77;2.53;;;18.20;99.90;;;;;;5029935;28;20244;-91
2021/08/22 04:36:51;;;;;;;3.83;3.03;;;18.20;99.90;;;;;;5014181;28;20241;-91
2021/08/22 04:39:26;;;;;;;3.50;3.00;;;18.20;99.90;;;;;;5030611;28;20232;-90
2021/08/22 04:42:00;;;;;;;3.47;3.17;;;18.20;99.90;;;;;;5004039;28;20248;-91
2021/08/22 04:44:31;;;;;;;3.23;2.90;;;18.20;99.90;;;;;;5023047;28;20216;-90
2021/08/22 04:47:05;;;;;;;3.13;2.83;;;18.20;99.90;;;;;;5031259;28;20241;-90
2021/08/22 04:49:36;;;;;;;3.27;2.97;;;18.20;99.90;;;;;;5042830;28;20193;-90
2021/08/22 04:52:09;;;;;;;4.53;2.63;;;18.30;99.90;;;;;;5048367;28;20575;-90
2021/08/22 04:54:40;;;;;;;3.10;2.80;;;18.20;99.90;;;;;;5031492;28;20201;-90
2021/08/22 04:57:14;;;;;;;3.20;2.70;;;18.20;99.90;;;;;;5050428;28;20224;-90
2021/08/22 04:59:56;;;;;;;2.93;2.63;;;18.20;99.90;;;;;;5051000;28;20708;-90
2021/08/22 05:02:27;;;;;;;5.97;2.90;;;18.20;99.90;;;;;;5048223;28;20204;-91
2021/08/22 05:05:03;;;;;;;3.10;2.60;;;18.30;99.90;;;;;;5046824;28;20203;-89
2021/08/22 05:07:35;;;;;;;2.67;2.43;;;18.30;99.90;;;;;;5048129;28;20193;-91
2021/08/22 05:10:08;;;;;;;3.30;2.57;;;18.30;99.90;;;;;;5041371;28;20563;-90
2021/08/22 05:12:41;;;;;;;3.13;2.53;;;18.30;99.90;;;;;;5037471;28;20243;-91
2021/08/22 05:15:15;;;;;;;5.30;2.57;;;18.30;99.90;;;;;;5046556;28;20292;-91
2021/08/22 05:17:47;;;;;;;2.53;2.33;;;18.30;99.90;;;;;;5048528;28;20205;-91
2021/08/22 05:20:19;;;;;;;4.80;2.50;;;18.20;99.90;;;;;;5046536;28;20299;-92
2021/08/22 05:22:53;;;;;;;2.77;2.33;;;18.30;99.90;;;;;;5050675;28;20205;-91
2021/08/22 05:25:24;;;;;;;3.00;2.70;;;18.20;99.90;;;;;;5055127;28;20219;-88
2021/08/22 05:27:57;;;;;;;3.07;2.77;;;18.20;99.90;;;;;;5030505;28;20212;-90
2021/08/22 05:30:29;;;;;;;4.27;2.50;;;18.20;99.90;;;;;;5041106;28;20228;-90
2021/08/22 05:33:02;;;;;;;3.00;2.67;;;18.20;99.90;;;;;;5039362;28;20236;-90
2021/08/22 05:35:33;;;;;;;4.37;2.67;;;18.20;99.90;;;;;;5038735;28;20213;-90
2021/08/22 05:38:07;;;;;;;4.50;2.87;;;18.20;99.90;;;;;;5046493;28;20235;-91
2021/08/22 05:40:38;;;;;;;3.50;2.50;;;18.20;99.90;;;;;;5039015;28;20329;-90
2021/08/22 05:43:12;;;;;;;3.67;2.57;;;18.10;99.90;;;;;;5038544;28;20266;-91
2021/08/22 05:45:43;;;;;;;2.37;2.10;;;18.10;99.90;;;;;;5029289;28;20252;-90
2021/08/22 05:48:14;;;;;;;3.20;2.43;;;18.10;99.90;;;;;;5023146;28;20221;-90
2021/08/22 05:50:45;;;;;;;4.43;2.30;;;18.00;99.90;;;;;;5027352;28;20224;-90
2021/08/22 05:53:17;;;;;;;5.33;2.33;;;17.90;99.90;;;;;;5026940;28;20314;-90
2021/08/22 05:55:48;;;;;;;3.87;2.33;;;17.90;99.90;;;;;;5025585;28;20233;-90
2021/08/22 05:58:23;;;;;;;2.93;2.37;;;17.90;99.90;;;;;;5013676;28;20224;-91
2021/08/22 06:00:55;;;;;;;2.93;2.50;;;17.80;99.90;;;;;;5016850;28;20239;-89
2021/08/22 06:03:28;;;;;;;4.43;2.57;;;17.80;99.90;;;;;;5029744;28;20217;-89
2021/08/22 06:06:10;;;;;;;2.87;2.30;;;17.70;99.90;;;;;;5042803;28;20209;-92
2021/08/22 06:08:43;;;;;;;4.83;2.30;;;17.60;99.90;;;;;;5054304;28;20232;-91
2021/08/22 06:11:16;;;;;;;5.70;2.87;;;17.60;99.90;;;;;;5038769;28;20236;-92
2021/08/22 06:13:51;;;;;;;4.00;2.67;;;17.60;99.90;;;;;;5044631;28;20231;-92
2021/08/22 06:16:23;;;;;;;3.87;2.20;;;17.60;99.90;;;;;;5055150;28;20208;-92
2021/08/22 06:18:56;;;;;;;3.43;2.40;;;17.60;99.90;;;;;;5056585;28;20216;-91
2021/08/22 06:21:28;;;;;;;6.30;2.27;;;17.60;99.90;;;;;;5032124;28;20753;-91
2021/08/22 06:24:00;;;;;;;3.93;2.50;;;17.50;99.90;;;;;;5480274;22;20231;-91
2021/08/22 06:26:31;;;;;;;3.03;2.70;;;17.60;99.90;;;;;;5091190;28;20203;-91
2021/08/22 06:29:04;;;;;;;7.33;2.97;;;17.50;99.90;;;;;;5079041;28;20200;-91
2021/08/22 06:31:35;;;;;;;4.23;2.63;;;17.50;99.90;;;;;;5079883;28;20575;-91
2021/08/22 06:34:09;;;;;;;3.80;2.53;;;17.50;99.90;;;;;;5062316;28;20334;-91
2021/08/22 06:36:41;;;;;;;3.43;2.67;;;17.50;99.90;;;;;;5062860;28;20267;-90
2021/08/22 06:39:12;;;;;;;2.43;2.13;;;17.40;99.90;;;;;;5079882;28;20710;-91
2021/08/22 06:41:43;;;;;;;3.77;2.70;;;17.40;99.90;;;;;;5079162;28;20576;-91
2021/08/22 06:44:16;;;;;;;3.17;2.73;;;17.40;99.90;;;;;;5080649;28;20239;-90
2021/08/22 06:46:48;;;;;;;3.60;2.67;;;17.20;99.90;;;;;;5080203;28;20208;-91
2021/08/22 06:49:19;;;;;;;3.57;2.90;;;17.20;99.90;;;;;;5079394;28;20337;-90
2021/08/22 06:51:53;;;;;;;3.67;2.50;;;17.20;99.90;;;;;;5078856;28;20579;-90
2021/08/22 06:54:28;;;;;;;3.83;2.47;;;17.20;99.90;;;;;;5080012;28;20215;-90
2021/08/22 06:57:00;;;;;;;2.93;2.47;;;17.20;99.90;;;;;;5080135;28;20357;-90
2021/08/22 06:59:34;;;;;;;3.87;3.00;;;17.20;99.90;;;;;;5060459;28;20774;-90
2021/08/22 07:02:05;;;;;;;2.83;2.47;;;17.30;99.90;;;;;;5058919;28;20242;-91
2021/08/22 07:04:38;;;;;;;5.27;3.30;;;17.20;99.90;;;;;;5067067;28;20215;-90
2021/08/22 07:07:09;;;;;;;3.13;2.60;;;17.20;99.90;;;;;;5061652;28;20300;-91
2021/08/22 07:09:41;;;;;;;3.70;2.93;;;17.20;99.90;;;;;;5059803;28;20223;-91
2021/08/22 07:12:14;;;;;;;3.87;3.17;;;17.10;99.90;;;;;;5058455;28;20211;-90
2021/08/22 07:14:47;;;;;;;5.20;2.63;;;17.20;99.90;;;;;;5063510;28;20735;-90
2021/08/22 07:17:20;;;;;;;3.53;2.67;;;17.10;99.90;;;;;;5059419;28;20661;-91
2021/08/22 07:19:51;;;;;;;3.27;2.60;;;17.10;99.90;;;;;;5060521;28;20204;-90
2021/08/22 07:22:22;;;;;;;3.40;2.30;;;17.10;99.90;;;;;;5061243;28;20212;-90
2021/08/22 07:24:54;;;;;;;4.03;2.70;;;17.00;99.90;;;;;;5060533;28;20282;-91
2021/08/22 07:27:28;;;;;;;2.80;2.37;;;17.00;99.90;;;;;;5062261;28;20559;-91
2021/08/22 07:30:02;;;;;;;3.97;2.50;;;17.00;99.90;;;;;;5059333;28;20204;-91
2021/08/22 07:32:33;;;;;;;3.40;2.80;;;16.80;99.90;;;;;;5061088;28;20199;-91
2021/08/22 07:35:05;;;;;;;3.10;2.70;;;16.80;99.90;;;;;;5059467;28;20247;-92
2021/08/22 07:37:39;;;;;;;3.47;2.70;;;16.80;99.90;;;;;;5060282;28;20208;-92
2021/08/22 07:40:15;;;;;;;3.43;2.50;;;16.80;99.90;;;;;;5058952;28;20290;-91
2021/08/22 07:42:46;;;;;;;2.80;2.50;;;16.70;99.90;;;;;;5059224;28;20235;-91
2021/08/22 07:45:20;;;;;;;3.33;2.67;;;16.80;99.90;;;;;;5058496;28;20283;-91
2021/08/22 07:47:52;;;;;;;4.17;3.00;;;16.70;99.90;;;;;;5061727;28;20207;-91
2021/08/22 07:50:23;;;;;;;5.33;2.83;;;16.70;99.90;;;;;;5068019;28;20216;-91
2021/08/22 07:53:01;;;;;;;5.73;2.97;;;16.60;99.90;;;;;;5071482;28;20216;-90
2021/08/22 07:55:32;;;;;;;4.67;2.57;;;16.60;99.90;;;;;;5058300;28;20200;-90
2021/08/22 07:58:05;;;;;;;3.37;2.90;;;16.50;99.90;;;;;;5038719;23;20400;-91
2021/08/22 08:00:38;;;;;;;4.23;2.70;;;16.50;99.90;;;;;;4982565;28;20210;-92
2021/08/22 08:03:10;;;;;;;4.20;2.60;;;16.50;99.90;;;;;;5000413;28;20211;-92
2021/08/22 08:05:43;;;;;;;3.70;2.47;;;16.50;99.90;;;;;;5046979;23;20233;-90
2021/08/22 08:08:14;;;;;;;4.93;2.97;;;16.50;99.90;;;;;;5038829;28;20239;-91
2021/08/22 08:10:47;;;;;;;5.00;2.73;;;16.50;99.90;;;;;;5038049;28;20204;-91
2021/08/22 08:13:19;;;;;;;3.50;2.20;;;16.40;99.90;;;;;;5005438;28;20256;-91
2021/08/22 08:15:52;;;;;;;3.17;2.40;;;16.40;99.90;;;;;;5040017;28;20215;-91
2021/08/22 08:18:25;;;;;;;4.10;3.00;;;16.40;99.90;;;;;;5045096;28;20209;-91
2021/08/22 08:20:58;;;;;;;5.03;2.80;;;16.40;99.90;;;;;;5045692;28;20568;-91
2021/08/22 08:23:29;;;;;;;4.87;2.80;;;16.40;99.90;;;;;;5021334;28;20276;-91
2021/08/22 08:26:01;;;;;;;4.53;2.90;;;16.30;99.90;;;;;;5041445;28;20204;-91
2021/08/22 08:28:33;;;;;;;3.00;2.40;;;16.30;99.90;;;;;;5030447;28;20548;-90
2021/08/22 08:31:08;;;;;;;3.63;2.80;;;16.30;99.90;;;;;;5048659;28;20248;-91
2021/08/22 08:33:40;;;;;;;3.10;2.37;;;16.30;99.90;;;;;;5057103;28;20283;-92
2021/08/22 08:36:11;;;;;;;4.10;2.90;;;16.20;99.90;;;;;;5040045;28;20192;-91
2021/08/22 08:38:42;;;;;;;4.33;2.93;;;16.20;99.90;;;;;;5033832;28;20218;-91
2021/08/22 08:41:13;;;;;;;3.33;2.90;;;16.20;99.90;;;;;;5018416;28;20214;-91
2021/08/22 08:43:48;;;;;;;3.87;2.47;;;16.20;99.90;;;;;;5018027;28;20262;-90
2021/08/22 08:46:21;;;;;;;3.80;2.50;;;16.20;99.90;;;;;;5031573;28;20215;-90
2021/08/22 08:48:58;;;;;;;3.60;2.53;;;16.20;99.90;;;;;;5038117;28;20295;-90
2021/08/22 08:51:39;;;;;;;3.30;2.37;;;16.10;99.90;;;;;;5036903;28;20662;-90
2021/08/22 08:54:11;;;;;;;3.93;2.73;;;16.20;99.90;;;;;;5037643;28;20228;-89
2021/08/22 08:56:42;;;;;;;4.57;2.40;;;16.20;99.90;;;;;;5037820;28;20630;-88
2021/08/22 08:59:13;;;;;;;2.90;2.60;;;16.10;99.90;;;;;;5023181;28;20283;-90
2021/08/22 09:01:47;;;;;;;2.97;2.47;;;16.10;99.90;;;;;;5016491;28;20221;-90
2021/08/22 09:04:25;;;;;;;2.63;2.20;;;16.10;99.90;;;;;;5018120;28;20296;-90
2021/08/22 09:07:44;;;;;;;2.93;2.30;;;16.10;99.90;;;;;;5018350;28;20221;-91
2021/08/22 09:10:48;;;;;;;3.53;2.30;;;16.10;99.90;;;;;;5025496;28;20299;-93
2021/08/22 09:13:56;;;;;;;4.63;2.57;;;16.10;99.90;;;;;;5016776;28;20267;-90
2021/08/22 09:17:18;;;;;;;3.97;2.60;;;16.10;99.90;;;;;;5031676;28;20204;-91
2021/08/22 09:20:25;;;;;;;3.93;2.73;;;16.10;99.90;;;;;;5041177;28;20233;-90
2021/08/22 09:23:41;;;;;;;4.37;2.47;;;16.00;99.90;;;;;;5038423;28;20239;-89
2021/08/22 09:26:45;;;;;;;3.00;2.50;;;16.00;99.90;;;;;;5039749;28;20239;-91
2021/08/22 09:30:19;;;;;;;3.90;2.70;;;16.00;99.90;;;;;;4992327;28;20274;-89
2021/08/22 09:33:35;;;;;;;4.17;2.60;;;16.00;99.90;;;;;;5023342;28;20292;-91
2021/08/22 09:36:42;;;;;;;3.80;2.73;;;16.00;99.90;;;;;;5041306;28;20253;-91
2021/08/22 09:40:02;;;;;;;3.33;2.77;;;15.90;99.90;;;;;;5041325;28;20247;-90
2021/08/22 09:43:17;;;;;;;4.03;3.10;;;15.90;99.90;;;;;;5048531;28;20267;-92
2021/08/22 09:46:30;;;;;;;5.13;2.83;;;15.90;99.90;;;;;;5056648;28;20207;-90
2021/08/22 09:49:31;;;;;;;3.27;2.87;;;15.90;99.90;;;;;;5035097;28;20247;-90
2021/08/22 09:52:39;;;;;;;3.60;2.60;;;15.90;99.90;;;;;;5021890;28;20212;-91
2021/08/22 09:55:56;;;;;;;4.03;2.70;;;15.90;99.90;;;;;;5056500;28;20224;-90
2021/08/22 09:58:53;;;;;;;5.13;2.70;;;15.80;99.90;;;;;;5045009;28;20208;-90
2021/08/22 10:02:02;;;;;;;3.70;3.00;;;15.80;99.90;;;;;;5009065;28;20201;-90
2021/08/22 10:05:13;;;;;;;4.90;3.17;;;15.80;99.90;;;;;;5041244;28;20263;-89
2021/08/22 10:08:05;;;;;;;6.67;3.67;;;15.70;99.90;;;;;;5040930;28;20251;-90
2021/08/22 10:10:39;;;;;;;4.93;3.03;;;15.80;99.90;;;;;;5040635;28;20232;-90
2021/08/22 10:13:12;;;;;;;4.80;3.07;;;15.70;99.90;;;;;;5023985;28;20228;-90
2021/08/22 10:15:46;;;;;;;4.47;3.47;;;15.70;99.90;;;;;;5023097;28;20251;-90
2021/08/22 10:18:23;;;;;;;4.47;3.17;;;15.70;99.90;;;;;;5041447;28;20277;-90
2021/08/22 10:21:01;;;;;;;3.67;3.27;;;15.70;99.90;;;;;;5039741;28;20204;-91
2021/08/22 10:23:54;;;;;;;4.13;2.90;;;15.70;99.90;;;;;;5040324;28;20212;-90
2021/08/22 10:26:48;;;;;;;3.93;2.97;;;15.60;99.90;;;;;;5041254;28;20287;-90
2021/08/22 10:29:24;;;;;;;3.47;2.87;;;15.60;99.90;;;;;;5040798;28;20224;-91
2021/08/22 10:32:09;;;;;;;3.20;2.83;;;15.60;99.90;;;;;;5039707;28;20218;-90
2021/08/22 10:34:42;;;;;;;4.33;3.20;;;15.60;99.90;;;;;;5041328;28;20323;-90
2021/08/22 10:37:28;;;;;;;3.10;2.53;;;15.70;99.90;;;;;;5041653;28;20259;-90
2021/08/22 10:40:01;;;;;;;3.63;2.97;;;15.60;99.90;;;;;;5042362;28;20228;-89
2021/08/22 10:42:33;;;;;;;4.50;2.70;;;15.60;99.90;;;;;;5040397;28;20212;-90
2021/08/22 10:45:06;;;;;;;3.20;2.70;;;15.60;99.90;;;;;;5040658;28;20220;-90
2021/08/22 10:47:47;;;;;;;4.13;3.17;;;15.60;99.90;;;;;;5041527;28;20209;-90
2021/08/22 10:50:21;;;;;;;4.10;3.10;;;15.50;99.90;;;;;;5025204;28;20189;-92
2021/08/22 10:52:53;;;;;;;4.27;2.70;;;15.50;99.90;;;;;;5058331;28;20204;-90
2021/08/22 10:55:33;;;;;;;3.40;3.10;;;15.50;99.90;;;;;;5050101;28;20315;-89
2021/08/22 10:58:05;;;;;;;4.50;2.90;;;15.50;99.90;;;;;;5045480;28;20217;-90
2021/08/22 11:00:40;;;;;;;3.70;3.20;;;15.60;99.90;;;;;;5040822;28;20239;-90
2021/08/22 11:03:22;;;;;;;4.57;2.80;;;15.50;99.90;;;;;;5045383;28;20219;-90
2021/08/22 11:05:53;;;;;;;4.97;3.53;;;15.50;99.90;;;;;;5039920;28;20229;-90
2021/08/22 11:08:25;;;;;;;3.93;2.60;;;15.50;99.90;;;;;;5025258;28;20297;-90
2021/08/22 11:11:00;;;;;;;4.33;3.10;;;15.50;99.90;;;;;;5027075;28;20228;-89
2021/08/22 11:13:33;;;;;;;3.03;2.73;;;15.50;99.90;;;;;;5033247;28;20219;-89
2021/08/22 11:16:06;;;;;;;4.87;3.20;;;15.50;99.90;;;;;;5051699;28;20243;-90
2021/08/22 11:18:46;;;;;;;4.33;3.10;;;15.40;99.90;;;;;;5046655;28;20200;-89
2021/08/22 11:21:30;;;;;;;4.70;3.33;;;15.40;99.90;;;;;;5053137;28;20215;-90
2021/08/22 11:24:01;;;;;;;3.93;2.63;;;15.40;99.90;;;;;;5038332;28;20197;-91
2021/08/22 11:26:33;;;;;;;4.13;3.10;;;15.40;99.90;;;;;;5035945;28;20221;-90
2021/08/22 11:29:05;;;;;;;3.77;2.90;;;15.40;99.90;;;;;;5028806;28;20275;-90
2021/08/22 11:31:39;;;;;;;4.47;3.17;;;15.40;99.90;;;;;;5026649;28;20206;-90
2021/08/22 11:34:14;;;;;;;2.80;2.60;;;15.40;99.90;;;;;;5028543;28;20593;-90
2021/08/22 11:36:46;;;;;;;3.80;3.10;;;15.40;99.90;;;;;;5026328;28;20237;-89
2021/08/22 11:39:19;;;;;;;4.03;3.40;;;15.30;99.90;;;;;;5025702;28;20296;-90
2021/08/22 11:41:52;;;;;;;3.77;2.70;;;15.40;99.90;;;;;;5022940;28;20711;-90
2021/08/22 11:44:24;;;;;;;5.33;2.87;;;15.40;99.90;;;;;;5038278;28;20205;-90
2021/08/22 11:46:59;;;;;;;4.13;2.87;;;15.40;99.90;;;;;;5039268;28;20228;-90
2021/08/22 11:49:32;;;;;;;4.80;3.30;;;15.40;99.90;;;;;;5022603;28;20299;-90
2021/08/22 11:52:08;;;;;;;4.43;3.00;;;15.40;99.90;;;;;;5021441;28;20236;-90
2021/08/22 11:54:39;;;;;;;3.80;3.30;;;15.40;99.90;;;;;;5038943;28;20212;-89
2021/08/22 11:57:20;;;;;;;3.13;2.83;;;15.40;99.90;;;;;;5038527;28;20205;-90
2021/08/22 12:00:02;;;;;;;4.50;3.43;;;15.50;99.90;;;;;;5037743;28;20634;-89
2021/08/22 12:02:35;;;;;;;4.20;2.97;;;15.50;99.90;;;;;;5037956;28;20275;-89
2021/08/22 12:05:21;;;;;;;5.27;3.40;;;15.50;99.90;;;;;;5037725;28;20247;-90
2021/08/22 12:08:04;;;;;;;3.37;3.00;;;15.50;99.90;;;;;;5038120;28;20631;-90
2021/08/22 12:10:40;;;;;;;4.23;3.40;;;15.60;99.90;;;;;;5037969;28;20213;-89
2021/08/22 12:13:17;;;;;;;4.80;3.27;;;15.40;99.90;;;;;;5038570;28;20200;-90
2021/08/22 12:15:49;;;;;;;4.27;2.90;;;15.40;99.90;;;;;;5037965;28;20286;-89
2021/08/22 12:18:29;;;;;;;3.13;2.83;;;15.40;99.90;;;;;;5037452;28;20322;-89
2021/08/22 12:21:18;;;;;;;4.10;2.90;;;15.40;99.90;;;;;;5004737;28;20213;-90
2021/08/22 12:23:53;;;;;;;4.10;3.10;;;15.40;99.90;;;;;;5021576;28;20636;-89
2021/08/22 12:26:29;;;;;;;3.63;2.97;;;15.40;99.90;;;;;;5038673;28;20220;-90
2021/08/22 12:29:01;;;;;;;6.47;3.03;;;15.50;99.90;;;;;;5037286;28;20259;-90
2021/08/22 12:31:36;;;;;;;4.23;3.00;;;15.50;99.90;;;;;;5038154;28;20225;-90
2021/08/22 12:34:11;;;;;;;3.33;3.00;;;15.50;99.90;;;;;;5038732;28;20216;-91
2021/08/22 12:36:44;;;;;;;3.27;2.97;;;15.40;99.90;;;;;;5038652;28;20240;-90
2021/08/22 12:39:17;;;;;;;5.73;3.40;;;15.40;99.90;;;;;;5037343;28;20292;-90
2021/08/22 12:41:49;;;;;;;4.23;2.83;;;15.40;99.90;;;;;;5037045;28;20243;-90
2021/08/22 12:44:21;;;;;;;6.00;3.03;;;15.30;99.90;;;;;;5038220;28;20240;-91
2021/08/22 12:46:54;;;;;;;4.77;3.03;;;15.30;99.90;;;;;;5037904;28;20247;-91
2021/08/22 12:49:29;;;;;;;4.10;2.70;;;15.30;99.90;;;;;;5038483;28;20211;-90
2021/08/22 12:52:02;;;;;;;4.07;3.40;;;15.20;99.90;;;;;;5028501;28;20226;-90
2021/08/22 12:54:33;;;;;;;6.73;3.20;;;15.20;99.90;;;;;;5018130;28;20260;-90
2021/08/22 12:57:07;;;;;;;3.30;2.70;;;15.20;99.90;;;;;;5017502;28;20268;-89
2021/08/22 12:59:39;;;;;;;4.10;3.10;;;15.20;99.90;;;;;;5019434;28;20205;-90
2021/08/22 13:02:10;;;;;;;5.30;3.07;;;15.30;99.90;;;;;;5028064;28;20229;-90
2021/08/22 13:04:44;;;;;;;3.70;2.83;;;15.30;99.90;;;;;;5022726;28;20213;-89
2021/08/22 13:07:15;;;;;;;4.40;3.30;;;15.30;99.90;;;;;;5053720;28;20209;-90
2021/08/22 13:09:46;;;;;;;4.17;2.97;;;15.30;99.90;;;;;;5051577;28;20240;-90
2021/08/22 13:12:18;;;;;;;4.63;3.23;;;15.20;99.90;;;;;;5047258;28;20209;-90
2021/08/22 13:14:49;;;;;;;3.23;2.80;;;15.20;99.90;;;;;;5055423;28;20253;-90
2021/08/22 13:17:22;;;;;;;3.47;3.10;;;15.20;99.90;;;;;;5055956;28;20243;-90
2021/08/22 13:19:55;;;;;;;5.33;3.03;;;15.20;99.90;;;;;;5029109;28;20275;-90
2021/08/22 13:22:27;;;;;;;3.67;3.20;;;15.20;99.90;;;;;;5020287;28;20276;-91
2021/08/22 13:24:59;;;;;;;4.27;3.00;;;15.20;99.90;;;;;;5037256;28;20288;-90
2021/08/22 13:27:30;;;;;;;4.90;3.00;;;15.20;99.90;;;;;;5020491;28;20244;-89
2021/08/22 13:30:01;;;;;;;4.60;2.87;;;15.20;99.90;;;;;;5036648;28;20673;-89
2021/08/22 13:32:33;;;;;;;3.00;2.70;;;15.20;99.90;;;;;;5035546;28;20216;-90
2021/08/22 13:35:25;;;;;;;8.10;3.00;;;15.20;99.90;;;;;;5036571;28;20205;-91
2021/08/22 13:37:57;;;;;;;5.00;2.60;;;15.10;99.90;;;;;;5036540;28;20676;-91